createdAt,value
2019-02-09T00:00:01.439Z,7.40
2019-02-09T00:02:28.029Z,7.67
2019-02-09T00:04:54.662Z,6.67
2019-02-09T00:07:21.304Z,6.28
2019-02-09T00:09:47.940Z,7.12
2019-02-09T00:12:14.525Z,6.83
2019-02-09T00:14:41.160Z,8.53
2019-02-09T00:17:07.750Z,9.43
2019-02-09T00:19:34.442Z,7.30
2019-02-09T00:22:01.079Z,6.97
2019-02-09T00:24:27.718Z,7.75
2019-02-09T00:26:54.353Z,6.30
2019-02-09T00:29:20.942Z,6.58
2019-02-09T00:31:47.634Z,7.12
2019-02-09T00:34:16.247Z,5.95
2019-02-09T00:36:42.632Z,7.60
2019-02-09T00:39:09.299Z,6.22
2019-02-09T00:41:35.932Z,5.78
2019-02-09T00:44:02.562Z,6.42
2019-02-09T00:46:29.305Z,5.10
2019-02-09T00:48:55.944Z,6.67
2019-02-09T00:51:22.531Z,5.50
2019-02-09T00:53:49.165Z,6.40
2019-02-09T00:56:15.750Z,6.37
2019-02-09T00:58:42.390Z,5.78
2019-02-09T01:01:08.971Z,6.85
2019-02-09T01:03:35.606Z,7.42
2019-02-09T01:06:02.194Z,8.23
2019-02-09T01:08:28.831Z,5.97
2019-02-09T01:10:55.416Z,7.65
2019-02-09T01:13:22.047Z,5.78
2019-02-09T01:15:48.633Z,5.80
2019-02-09T01:18:15.291Z,6.78
2019-02-09T01:20:41.932Z,7.42
2019-02-09T01:23:08.523Z,5.95
2019-02-09T01:25:35.154Z,6.53
2019-02-09T01:28:02.355Z,6.80
2019-02-09T01:30:28.944Z,6.35
2019-02-09T01:32:55.533Z,4.60
2019-02-09T01:35:22.167Z,6.12
2019-02-09T01:37:48.753Z,4.85
2019-02-09T01:40:15.386Z,7.35
2019-02-09T01:42:42.085Z,6.50
2019-02-09T01:45:08.823Z,4.35
2019-02-09T01:47:35.416Z,5.90
2019-02-09T01:50:02.047Z,5.08
2019-02-09T01:52:28.631Z,5.90
2019-02-09T01:54:55.272Z,5.35
2019-02-09T01:57:21.857Z,4.67
2019-02-09T01:59:48.490Z,5.22
2019-02-09T02:02:15.072Z,6.28
2019-02-09T02:04:41.703Z,5.12
2019-02-09T02:07:08.334Z,4.90
2019-02-09T02:09:34.916Z,4.85
2019-02-09T02:12:01.636Z,3.42
2019-02-09T02:14:28.213Z,5.20
2019-02-09T02:16:54.843Z,5.10
2019-02-09T02:19:21.427Z,4.42
2019-02-09T02:21:48.058Z,3.75
2019-02-09T02:24:16.810Z,3.47
2019-02-09T02:26:42.994Z,4.28
2019-02-09T02:29:09.621Z,4.15
2019-02-09T02:31:36.265Z,5.22
2019-02-09T02:34:02.846Z,3.92
2019-02-09T02:36:29.426Z,4.03
2019-02-09T02:38:56.061Z,3.62
2019-02-09T02:41:22.694Z,3.60
2019-02-09T02:43:49.326Z,4.58
2019-02-09T02:46:15.956Z,5.20
2019-02-09T02:48:42.601Z,4.05
2019-02-09T02:51:09.178Z,5.87
2019-02-09T02:53:35.758Z,3.80
2019-02-09T02:56:02.388Z,4.03
2019-02-09T02:58:29.014Z,5.25
2019-02-09T03:00:55.600Z,4.62
2019-02-09T03:03:22.229Z,3.42
2019-02-09T03:05:48.814Z,6.03
2019-02-09T03:08:15.541Z,5.12
2019-02-09T03:10:42.122Z,5.35
2019-02-09T03:13:08.757Z,4.55
2019-02-09T03:15:35.357Z,3.67
2019-02-09T03:18:01.993Z,3.65
2019-02-09T03:20:28.699Z,3.30
2019-02-09T03:22:55.279Z,3.52
2019-02-09T03:25:21.913Z,3.87
2019-02-09T03:27:48.646Z,3.83
2019-02-09T03:30:15.232Z,5.28
2019-02-09T03:32:41.811Z,2.77
2019-02-09T03:35:08.444Z,4.55
2019-02-09T03:37:35.075Z,4.55
2019-02-09T03:40:01.664Z,4.00
2019-02-09T03:42:28.294Z,4.15
2019-02-09T03:44:54.884Z,3.62
2019-02-09T03:47:21.469Z,3.30
2019-02-09T03:49:48.101Z,4.08
2019-02-09T03:52:14.729Z,4.65
2019-02-09T03:54:41.313Z,3.65
2019-02-09T03:57:07.943Z,4.30
2019-02-09T03:59:34.526Z,3.70
2019-02-09T04:02:01.502Z,4.10
2019-02-09T04:04:28.195Z,3.27
2019-02-09T04:06:54.773Z,3.87
2019-02-09T04:09:21.360Z,3.95
2019-02-09T04:11:47.986Z,4.58
2019-02-09T04:14:16.675Z,4.28
2019-02-09T04:16:43.029Z,4.50
2019-02-09T04:19:09.609Z,3.72
2019-02-09T04:21:36.244Z,3.47
2019-02-09T04:24:02.826Z,4.05
2019-02-09T04:26:29.459Z,3.15
2019-02-09T04:28:56.039Z,2.85
2019-02-09T04:31:22.671Z,2.70
2019-02-09T04:33:49.256Z,5.25
2019-02-09T04:36:15.953Z,4.28
2019-02-09T04:38:42.585Z,3.83
2019-02-09T04:41:09.174Z,3.75
2019-02-09T04:43:35.805Z,4.30
2019-02-09T04:46:02.398Z,2.92
2019-02-09T04:48:29.026Z,5.35
2019-02-09T04:50:55.608Z,3.65
2019-02-09T04:53:22.239Z,3.47
2019-02-09T04:55:48.823Z,3.70
2019-02-09T04:58:15.401Z,3.58
2019-02-09T05:00:42.029Z,4.35
2019-02-09T05:03:08.614Z,4.33
2019-02-09T05:05:35.249Z,3.98
2019-02-09T05:08:01.878Z,3.17
2019-02-09T05:10:28.498Z,3.20
2019-02-09T05:12:55.079Z,2.85
2019-02-09T05:15:21.709Z,3.62
2019-02-09T05:17:48.389Z,3.15
2019-02-09T05:20:15.021Z,3.75
2019-02-09T05:22:41.648Z,4.87
2019-02-09T05:25:08.235Z,3.22
2019-02-09T05:27:34.860Z,2.55
2019-02-09T05:30:01.444Z,3.40
2019-02-09T05:32:28.074Z,3.98
2019-02-09T05:34:54.752Z,4.92
2019-02-09T05:37:21.384Z,3.00
2019-02-09T05:39:48.023Z,3.20
2019-02-09T05:42:14.607Z,3.02
2019-02-09T05:44:41.181Z,4.72
2019-02-09T05:47:07.817Z,4.70
2019-02-09T05:49:34.443Z,3.08
2019-02-09T05:52:01.019Z,3.08
2019-02-09T05:54:27.650Z,2.80
2019-02-09T05:56:54.290Z,3.40
2019-02-09T05:59:20.922Z,3.55
2019-02-09T06:01:47.565Z,3.70
2019-02-09T06:04:14.143Z,2.95
2019-02-09T06:06:40.780Z,3.40
2019-02-09T06:09:07.408Z,3.08
2019-02-09T06:11:34.041Z,3.15
2019-02-09T06:14:00.625Z,2.77
2019-02-09T06:16:27.257Z,2.77
2019-02-09T06:18:53.838Z,3.60
2019-02-09T06:21:20.570Z,2.77
2019-02-09T06:23:47.154Z,2.90
2019-02-09T06:26:13.857Z,3.20
2019-02-09T06:28:40.438Z,3.30
2019-02-09T06:31:07.058Z,4.17
2019-02-09T06:33:33.635Z,3.60
2019-02-09T06:36:00.266Z,2.72
2019-02-09T06:38:26.847Z,3.98
2019-02-09T06:40:53.470Z,3.98
2019-02-09T06:43:20.049Z,2.30
2019-02-09T06:45:46.678Z,2.08
2019-02-09T06:48:13.255Z,2.52
2019-02-09T06:50:39.883Z,3.37
2019-02-09T06:53:06.465Z,3.67
2019-02-09T06:55:33.106Z,2.27
2019-02-09T06:57:59.729Z,2.98
2019-02-09T07:00:26.310Z,3.22
2019-02-09T07:02:54.568Z,2.02
2019-02-09T07:05:21.351Z,2.05
2019-02-09T07:07:47.928Z,3.92
2019-02-09T07:10:14.558Z,2.67
2019-02-09T07:12:41.142Z,2.72
2019-02-09T07:15:07.769Z,2.35
2019-02-09T07:17:34.353Z,3.40
2019-02-09T07:20:01.835Z,3.65
2019-02-09T07:22:28.465Z,4.22
2019-02-09T07:24:55.094Z,4.50
2019-02-09T07:27:21.858Z,6.22
2019-02-09T07:29:48.484Z,4.60
2019-02-09T07:32:15.112Z,4.72
2019-02-09T07:34:41.739Z,5.40
2019-02-09T07:37:08.322Z,5.40
2019-02-09T07:39:34.947Z,4.33
2019-02-09T07:42:01.581Z,3.90
2019-02-09T07:44:28.163Z,4.45
2019-02-09T07:46:54.749Z,4.47
2019-02-09T07:49:21.376Z,3.25
2019-02-09T07:51:48.006Z,3.92
2019-02-09T07:54:14.585Z,4.22
2019-02-09T07:56:41.207Z,4.33
2019-02-09T07:59:07.837Z,5.50
2019-02-09T08:01:34.463Z,5.22
2019-02-09T08:04:01.051Z,4.00
2019-02-09T08:06:27.678Z,4.90
2019-02-09T08:08:54.259Z,4.20
2019-02-09T08:11:20.883Z,4.47
2019-02-09T08:13:47.463Z,3.47
2019-02-09T08:16:14.097Z,3.08
2019-02-09T08:18:40.677Z,4.60
2019-02-09T08:21:07.257Z,3.70
2019-02-09T08:23:33.885Z,3.72
2019-02-09T08:26:00.470Z,4.30
2019-02-09T08:28:27.092Z,3.33
2019-02-09T08:30:53.678Z,2.85
2019-02-09T08:33:20.308Z,3.60
2019-02-09T08:35:46.996Z,7.60
2019-02-09T08:38:13.632Z,3.52
2019-02-09T08:40:40.210Z,2.87
2019-02-09T08:43:06.837Z,3.58
2019-02-09T08:45:33.465Z,3.22
2019-02-09T08:48:00.096Z,3.60
2019-02-09T08:50:26.830Z,3.60
2019-02-09T08:52:53.403Z,3.60
2019-02-09T08:55:20.102Z,3.98
2019-02-09T08:57:46.686Z,3.98
2019-02-09T09:00:13.313Z,3.20
2019-02-09T09:02:39.891Z,2.52
2019-02-09T09:05:09.707Z,2.80
2019-02-09T09:07:34.877Z,5.12
2019-02-09T09:10:01.460Z,5.72
2019-02-09T09:12:28.103Z,3.33
2019-02-09T09:14:54.688Z,4.83
2019-02-09T09:17:21.265Z,5.60
2019-02-09T09:19:47.902Z,3.45
2019-02-09T09:22:14.477Z,2.47
2019-02-09T09:24:41.113Z,3.52
2019-02-09T09:27:07.696Z,4.42
2019-02-09T09:29:34.326Z,3.15
2019-02-09T09:32:00.907Z,2.30
2019-02-09T09:34:27.543Z,2.37
2019-02-09T09:36:54.134Z,3.80
2019-02-09T09:39:20.764Z,2.40
2019-02-09T09:41:47.341Z,2.67
2019-02-09T09:44:13.995Z,2.85
2019-02-09T09:46:40.733Z,3.70
2019-02-09T09:49:07.319Z,2.00
2019-02-09T09:51:33.903Z,2.75
2019-02-09T09:54:00.542Z,2.27
2019-02-09T09:56:27.189Z,2.45
2019-02-09T09:58:53.935Z,2.58
2019-02-09T10:01:20.566Z,3.22
2019-02-09T10:03:47.147Z,2.87
2019-02-09T10:06:13.785Z,2.08
2019-02-09T10:08:40.363Z,3.10
2019-02-09T10:11:07.004Z,3.17
2019-02-09T10:13:33.644Z,1.95
2019-02-09T10:16:00.224Z,1.27
2019-02-09T10:18:26.860Z,2.77
2019-02-09T10:20:53.486Z,4.67
2019-02-09T10:23:20.073Z,6.10
2019-02-09T10:25:46.708Z,3.72
2019-02-09T10:28:13.376Z,2.90
2019-02-09T10:30:40.013Z,2.60
2019-02-09T10:33:06.660Z,2.33
2019-02-09T10:35:33.249Z,4.97
2019-02-09T10:37:59.912Z,4.45
2019-02-09T10:40:26.552Z,2.17
2019-02-09T10:42:53.134Z,3.52
2019-02-09T10:45:19.843Z,1.30
2019-02-09T10:47:46.490Z,2.02
2019-02-09T10:50:13.081Z,4.58
2019-02-09T10:52:39.666Z,2.45
2019-02-09T10:55:06.398Z,2.00
2019-02-09T10:57:33.038Z,1.87
2019-02-09T11:00:00.181Z,2.37
2019-02-09T11:02:27.661Z,1.22
2019-02-09T11:04:54.364Z,1.20
2019-02-09T11:07:20.997Z,1.27
2019-02-09T11:09:47.580Z,1.50
2019-02-09T11:12:14.211Z,1.12
2019-02-09T11:14:40.797Z,1.60
2019-02-09T11:17:07.380Z,1.57
2019-02-09T11:19:34.016Z,2.15
2019-02-09T11:22:00.605Z,2.62
2019-02-09T11:24:27.236Z,2.35
2019-02-09T11:26:53.819Z,2.20
2019-02-09T11:29:20.408Z,2.17
2019-02-09T11:31:47.039Z,2.37
2019-02-09T11:34:13.624Z,3.10
2019-02-09T11:36:40.263Z,1.82
2019-02-09T11:39:06.848Z,2.62
2019-02-09T11:41:33.486Z,2.70
2019-02-09T11:44:00.219Z,2.02
2019-02-09T11:46:26.896Z,2.87
2019-02-09T11:48:53.482Z,2.02
2019-02-09T11:51:20.122Z,1.60
2019-02-09T11:53:46.704Z,1.40
2019-02-09T11:56:13.374Z,1.67
2019-02-09T11:58:39.966Z,4.83
2019-02-09T12:01:06.623Z,5.97
2019-02-09T12:03:33.213Z,2.90
2019-02-09T12:05:59.804Z,3.90
2019-02-09T12:08:26.450Z,1.77
2019-02-09T12:10:53.084Z,2.77
2019-02-09T12:13:19.801Z,1.92
2019-02-09T12:15:46.440Z,3.02
2019-02-09T12:18:13.069Z,1.77
2019-02-09T12:20:39.757Z,1.82
2019-02-09T12:23:06.395Z,1.87
2019-02-09T12:25:32.991Z,2.55
2019-02-09T12:27:59.634Z,2.35
2019-02-09T12:30:26.223Z,2.37
2019-02-09T12:32:52.814Z,1.05
2019-02-09T12:35:19.449Z,1.70
2019-02-09T12:37:46.031Z,2.87
2019-02-09T12:40:12.645Z,1.10
2019-02-09T12:42:39.234Z,1.42
2019-02-09T12:45:05.824Z,2.02
2019-02-09T12:47:32.463Z,1.10
2019-02-09T12:49:59.055Z,0.57
2019-02-09T12:52:25.706Z,1.37
2019-02-09T12:54:52.293Z,1.82
2019-02-09T12:57:18.881Z,0.95
2019-02-09T12:59:45.518Z,0.93
2019-02-09T13:02:12.166Z,1.20
2019-02-09T13:04:38.746Z,1.50
2019-02-09T13:07:05.338Z,1.32
2019-02-09T13:09:31.987Z,2.50
2019-02-09T13:11:58.573Z,2.05
2019-02-09T13:14:25.181Z,3.67
2019-02-09T13:16:51.815Z,2.27
2019-02-09T13:19:18.406Z,9.18
2019-02-09T13:21:45.041Z,2.85
2019-02-09T13:24:11.625Z,3.92
2019-02-09T13:26:38.269Z,2.50
2019-02-09T13:29:04.862Z,4.28
2019-02-09T13:31:31.491Z,2.25
2019-02-09T13:33:58.076Z,2.22
2019-02-09T13:36:24.713Z,4.05
2019-02-09T13:38:51.301Z,5.42
2019-02-09T13:41:17.942Z,2.90
2019-02-09T13:43:44.524Z,2.60
2019-02-09T13:46:11.155Z,1.85
2019-02-09T13:48:37.797Z,1.95
2019-02-09T13:51:04.381Z,0.78
2019-02-09T13:53:31.012Z,1.47
2019-02-09T13:55:57.593Z,0.53
2019-02-09T13:58:24.184Z,2.17
2019-02-09T14:00:50.820Z,0.90
2019-02-09T14:03:17.411Z,0.72
2019-02-09T14:05:44.041Z,2.58
2019-02-09T14:08:10.629Z,1.40
2019-02-09T14:10:37.271Z,1.72
2019-02-09T14:13:03.855Z,0.70
2019-02-09T14:15:30.499Z,0.98
2019-02-09T14:17:57.129Z,1.55
2019-02-09T14:20:23.797Z,1.60
2019-02-09T14:22:50.434Z,2.08
2019-02-09T14:25:17.070Z,2.33
2019-02-09T14:27:43.700Z,2.33
2019-02-09T14:30:10.285Z,2.58
2019-02-09T14:32:36.963Z,1.98
2019-02-09T14:35:03.979Z,2.30
2019-02-09T14:37:30.657Z,0.85
2019-02-09T14:39:57.427Z,2.45
2019-02-09T14:42:24.063Z,1.52
2019-02-09T14:44:51.822Z,2.17
2019-02-09T14:47:18.407Z,1.30
2019-02-09T14:49:45.036Z,2.22
2019-02-09T14:52:11.675Z,1.50
2019-02-09T14:54:38.262Z,1.85
2019-02-09T14:57:04.897Z,1.95
2019-02-09T14:59:31.485Z,1.50
2019-02-09T15:01:58.122Z,1.55
2019-02-09T15:04:24.755Z,1.65
2019-02-09T15:06:51.342Z,1.52
2019-02-09T15:09:17.982Z,1.72
2019-02-09T15:11:44.567Z,2.55
2019-02-09T15:14:11.206Z,1.85
2019-02-09T15:16:37.793Z,3.00
2019-02-09T15:19:04.443Z,1.82
2019-02-09T15:21:31.034Z,2.02
2019-02-09T15:23:57.679Z,2.72
2019-02-09T15:26:24.355Z,3.05
2019-02-09T15:28:50.946Z,4.75
2019-02-09T15:31:17.603Z,3.20
2019-02-09T15:33:44.302Z,2.98
2019-02-09T15:36:10.936Z,2.80
2019-02-09T15:38:37.584Z,2.98
2019-02-09T15:41:04.167Z,2.62
2019-02-09T15:43:30.757Z,3.75
2019-02-09T15:45:57.463Z,3.47
2019-02-09T15:48:24.097Z,2.35
2019-02-09T15:50:50.685Z,3.50
2019-02-09T15:53:17.320Z,3.00
2019-02-09T15:55:43.904Z,2.65
2019-02-09T15:58:10.545Z,4.75
2019-02-09T16:00:37.134Z,5.00
2019-02-09T16:03:04.764Z,4.78
2019-02-09T16:05:31.469Z,3.20
2019-02-09T16:07:58.105Z,3.60
2019-02-09T16:10:24.691Z,3.65
2019-02-09T16:12:51.320Z,2.70
2019-02-09T16:15:17.912Z,2.45
2019-02-09T16:17:44.492Z,3.00
2019-02-09T16:20:11.123Z,2.42
2019-02-09T16:22:37.710Z,3.22
2019-02-09T16:25:05.426Z,4.58
2019-02-09T16:27:32.136Z,3.70
2019-02-09T16:29:58.781Z,4.10
2019-02-09T16:32:25.366Z,3.98
2019-02-09T16:34:51.962Z,3.52
2019-02-09T16:37:18.597Z,5.90
2019-02-09T16:39:45.184Z,5.45
2019-02-09T16:42:11.817Z,5.35
2019-02-09T16:44:38.409Z,4.17
2019-02-09T16:47:05.041Z,4.03
2019-02-09T16:49:31.630Z,4.83
2019-02-09T16:51:58.212Z,6.10
2019-02-09T16:54:24.854Z,3.47
2019-02-09T16:56:51.436Z,3.00
2019-02-09T16:59:18.071Z,2.95
2019-02-09T17:01:44.656Z,2.22
2019-02-09T17:04:11.291Z,3.37
2019-02-09T17:06:37.877Z,3.25
2019-02-09T17:09:04.517Z,3.50
2019-02-09T17:11:31.098Z,2.87
2019-02-09T17:13:57.744Z,2.90
2019-02-09T17:16:24.333Z,3.80
2019-02-09T17:18:50.965Z,2.70
2019-02-09T17:21:17.553Z,4.80
2019-02-09T17:23:44.193Z,3.60
2019-02-09T17:26:10.774Z,2.85
2019-02-09T17:28:37.491Z,2.27
2019-02-09T17:31:04.076Z,2.50
2019-02-09T17:33:30.666Z,4.28
2019-02-09T17:35:57.303Z,3.00
2019-02-09T17:38:23.892Z,4.12
2019-02-09T17:40:50.529Z,2.83
2019-02-09T17:43:17.109Z,3.22
2019-02-09T17:45:43.744Z,3.55
2019-02-09T17:48:10.381Z,3.40
2019-02-09T17:50:36.968Z,3.05
2019-02-09T17:53:03.602Z,3.05
2019-02-09T17:55:30.238Z,2.70
2019-02-09T17:57:56.865Z,2.70
2019-02-09T18:00:23.495Z,2.92
2019-02-09T18:02:50.132Z,4.62
2019-02-09T18:05:16.713Z,4.17
2019-02-09T18:07:43.350Z,2.35
2019-02-09T18:10:09.985Z,4.80
2019-02-09T18:12:36.670Z,3.17
2019-02-09T18:15:03.411Z,3.72
2019-02-09T18:17:29.995Z,3.55
2019-02-09T18:19:56.627Z,5.58
2019-02-09T18:22:23.261Z,2.80
2019-02-09T18:24:49.962Z,2.70
2019-02-09T18:27:16.547Z,4.33
2019-02-09T18:29:43.179Z,2.85
2019-02-09T18:32:10.725Z,4.83
2019-02-09T18:34:37.359Z,5.03
2019-02-09T18:37:03.950Z,4.60
2019-02-09T18:39:30.540Z,5.62
2019-02-09T18:41:57.178Z,2.12
2019-02-09T18:44:23.765Z,3.22
2019-02-09T18:46:50.395Z,3.75
2019-02-09T18:49:16.974Z,2.72
2019-02-09T18:51:45.184Z,4.67
2019-02-09T18:54:11.976Z,3.67
2019-02-09T18:56:38.611Z,4.60
2019-02-09T18:59:05.249Z,3.05
2019-02-09T19:01:31.835Z,4.40
2019-02-09T19:03:58.477Z,5.37
2019-02-09T19:06:25.050Z,3.50
2019-02-09T19:08:51.683Z,1.98
2019-02-09T19:11:18.449Z,3.05
2019-02-09T19:13:45.037Z,2.98
2019-02-09T19:16:11.620Z,2.72
2019-02-09T19:18:38.255Z,3.52
2019-02-09T19:21:04.883Z,2.77
2019-02-09T19:23:31.534Z,2.72
2019-02-09T19:25:58.118Z,1.75
2019-02-09T19:28:24.699Z,3.45
2019-02-09T19:30:51.341Z,3.45
2019-02-09T19:33:17.924Z,3.10
2019-02-09T19:35:44.560Z,3.85
2019-02-09T19:38:11.186Z,4.33
2019-02-09T19:40:37.767Z,3.52
2019-02-09T19:43:04.399Z,2.62
2019-02-09T19:45:30.981Z,2.30
2019-02-09T19:47:57.695Z,2.83
2019-02-09T19:50:24.326Z,2.80
2019-02-09T19:52:51.091Z,2.15
2019-02-09T19:55:17.679Z,2.55
2019-02-09T19:57:44.314Z,3.90
2019-02-09T20:00:10.901Z,4.08
2019-02-09T20:02:37.483Z,3.83
2019-02-09T20:05:04.114Z,5.25
2019-02-09T20:07:31.004Z,3.65
2019-02-09T20:09:57.652Z,3.22
2019-02-09T20:12:24.237Z,2.80
2019-02-09T20:14:50.819Z,1.98
2019-02-09T20:17:17.456Z,3.47
2019-02-09T20:19:44.088Z,3.98
2019-02-09T20:22:10.676Z,3.42
2019-02-09T20:24:37.499Z,3.90
2019-02-09T20:27:04.123Z,3.10
2019-02-09T20:29:30.708Z,3.25
2019-02-09T20:31:57.348Z,4.25
2019-02-09T20:34:23.977Z,2.47
2019-02-09T20:36:50.609Z,2.75
2019-02-09T20:39:17.194Z,2.67
2019-02-09T20:41:43.822Z,3.83
2019-02-09T20:44:10.407Z,3.67
2019-02-09T20:46:36.994Z,2.92
2019-02-09T20:49:03.625Z,3.12
2019-02-09T20:51:30.262Z,3.12
2019-02-09T20:53:56.906Z,2.17
2019-02-09T20:56:23.488Z,5.97
2019-02-09T20:58:50.121Z,2.08
2019-02-09T21:01:16.762Z,3.62
2019-02-09T21:03:43.348Z,2.67
2019-02-09T21:06:09.985Z,2.98
2019-02-09T21:08:36.575Z,4.70
2019-02-09T21:11:03.203Z,2.58
2019-02-09T21:13:29.851Z,4.40
2019-02-09T21:15:56.500Z,3.83
2019-02-09T21:18:23.080Z,3.60
2019-02-09T21:20:49.661Z,4.35
2019-02-09T21:23:16.300Z,3.87
2019-02-09T21:25:42.893Z,4.08
2019-02-09T21:28:09.523Z,2.83
2019-02-09T21:30:36.109Z,2.83
2019-02-09T21:33:02.738Z,5.05
2019-02-09T21:35:30.509Z,4.30
2019-02-09T21:37:57.352Z,3.27
2019-02-09T21:40:23.939Z,3.67
2019-02-09T21:42:50.523Z,2.60
2019-02-09T21:45:17.156Z,3.42
2019-02-09T21:47:43.740Z,2.62
2019-02-09T21:50:10.372Z,4.12
2019-02-09T21:52:36.956Z,6.60
2019-02-09T21:55:03.590Z,3.35
2019-02-09T21:57:30.175Z,3.85
2019-02-09T21:59:56.809Z,4.20
2019-02-09T22:02:23.397Z,2.72
2019-02-09T22:04:50.028Z,3.25
2019-02-09T22:07:16.663Z,2.85
2019-02-09T22:09:43.249Z,3.65
2019-02-09T22:12:10.075Z,5.00
2019-02-09T22:14:36.756Z,2.37
2019-02-09T22:17:03.455Z,5.15
2019-02-09T22:19:30.044Z,3.62
2019-02-09T22:21:56.935Z,2.83
2019-02-09T22:24:23.742Z,3.60
2019-02-09T22:26:50.386Z,3.40
2019-02-09T22:29:17.038Z,4.47
2019-02-09T22:31:43.618Z,3.08
2019-02-09T22:34:10.348Z,3.47
2019-02-09T22:36:37.511Z,3.58
2019-02-09T22:39:04.241Z,3.85
2019-02-09T22:41:30.820Z,3.90
2019-02-09T22:43:57.407Z,3.55
2019-02-09T22:46:24.042Z,3.98
2019-02-09T22:48:50.629Z,2.50
2019-02-09T22:51:17.276Z,3.25
2019-02-09T22:53:43.859Z,3.58
2019-02-09T22:56:10.448Z,3.58
2019-02-09T22:58:37.083Z,5.33
2019-02-09T23:01:03.672Z,4.97
2019-02-09T23:03:30.306Z,2.65
2019-02-09T23:05:56.940Z,3.87
2019-02-09T23:08:23.522Z,4.03
2019-02-09T23:10:50.153Z,4.20
2019-02-09T23:13:16.736Z,3.05
2019-02-09T23:15:43.327Z,3.85
2019-02-09T23:18:10.021Z,3.02
2019-02-09T23:20:36.608Z,2.62
2019-02-09T23:23:03.298Z,1.82
2019-02-09T23:25:29.879Z,2.83
2019-02-09T23:27:56.503Z,2.08
2019-02-09T23:30:23.111Z,1.62
2019-02-09T23:32:49.759Z,3.25
2019-02-09T23:35:16.344Z,4.15
2019-02-09T23:37:42.933Z,4.78
2019-02-09T23:40:09.576Z,3.75
2019-02-09T23:42:36.162Z,2.20
2019-02-09T23:45:02.747Z,2.83
2019-02-09T23:47:29.388Z,3.37
2019-02-09T23:49:55.986Z,2.70
2019-02-09T23:52:22.602Z,4.05
2019-02-09T23:54:49.233Z,2.80
2019-02-09T23:57:15.863Z,6.35
2019-02-09T23:59:42.449Z,2.67
